createdAt,value
2019-02-10T00:01:58.017Z,12.30
2019-02-10T00:04:29.752Z,12.24
2019-02-10T00:07:03.563Z,12.24
2019-02-10T00:09:34.830Z,12.29
2019-02-10T00:12:06.227Z,12.24
2019-02-10T00:14:37.473Z,12.19
2019-02-10T00:17:08.768Z,12.17
2019-02-10T00:19:40.115Z,12.16
2019-02-10T00:22:12.638Z,12.17
2019-02-10T00:24:43.908Z,12.16
2019-02-10T00:27:15.229Z,12.21
2019-02-10T00:29:47.207Z,12.20
2019-02-10T00:32:18.577Z,12.20
2019-02-10T00:34:53.063Z,12.24
2019-02-10T00:37:24.959Z,12.18
2019-02-10T00:39:56.302Z,12.20
2019-02-10T00:42:27.568Z,12.13
2019-02-10T00:44:58.928Z,12.16
2019-02-10T00:47:30.380Z,12.22
2019-02-10T00:50:03.921Z,12.14
2019-02-10T00:52:36.003Z,12.11
2019-02-10T00:55:07.431Z,12.11
2019-02-10T00:57:38.875Z,12.14
2019-02-10T01:00:10.532Z,12.17
2019-02-10T01:02:43.249Z,12.10
2019-02-10T01:05:15.698Z,12.08
2019-02-10T01:07:47.087Z,12.07
2019-02-10T01:10:21.354Z,12.05
2019-02-10T01:12:52.754Z,11.99
2019-02-10T01:15:24.007Z,12.00
2019-02-10T01:17:55.694Z,12.02
2019-02-10T01:20:26.995Z,12.07
2019-02-10T01:22:58.320Z,12.03
2019-02-10T01:25:29.558Z,11.98
2019-02-10T01:28:02.432Z,11.97
2019-02-10T01:30:33.693Z,12.00
2019-02-10T01:33:15.990Z,11.92
2019-02-10T01:35:52.905Z,11.96
2019-02-10T01:38:30.345Z,11.96
2019-02-10T01:41:16.347Z,11.92
2019-02-10T01:43:53.616Z,11.94
2019-02-10T01:46:35.219Z,11.91
2019-02-10T01:49:30.278Z,11.93
2019-02-10T01:52:11.983Z,12.01
2019-02-10T01:54:48.750Z,12.04
2019-02-10T01:57:22.039Z,12.02
2019-02-10T01:59:58.099Z,12.07
2019-02-10T02:02:35.253Z,12.09
2019-02-10T02:05:13.029Z,12.02
2019-02-10T02:07:50.634Z,12.04
2019-02-10T02:10:25.704Z,12.09
2019-02-10T02:13:00.355Z,12.07
2019-02-10T02:15:37.587Z,12.12
2019-02-10T02:18:16.577Z,12.23
2019-02-10T02:20:56.303Z,12.25
2019-02-10T02:23:31.639Z,12.30
2019-02-10T02:26:09.136Z,12.30
2019-02-10T02:28:43.685Z,12.30
2019-02-10T02:31:18.900Z,12.35
2019-02-10T02:33:50.450Z,12.38
2019-02-10T02:36:22.403Z,12.40
2019-02-10T02:38:53.729Z,12.39
2019-02-10T02:41:25.021Z,12.42
2019-02-10T02:43:56.393Z,12.42
2019-02-10T02:46:30.475Z,12.42
2019-02-10T02:49:03.845Z,12.47
2019-02-10T02:51:35.090Z,12.47
2019-02-10T02:54:07.249Z,12.50
2019-02-10T02:56:38.477Z,12.48
2019-02-10T02:59:09.816Z,12.47
2019-02-10T03:01:41.114Z,12.49
2019-02-10T03:04:13.129Z,12.50
2019-02-10T03:06:47.883Z,12.54
2019-02-10T03:09:19.363Z,12.53
2019-02-10T03:11:51.778Z,12.48
2019-02-10T03:14:23.120Z,12.40
2019-02-10T03:16:56.747Z,12.38
2019-02-10T03:19:27.793Z,12.33
2019-02-10T03:21:59.141Z,12.35
2019-02-10T03:24:30.944Z,12.31
2019-02-10T03:27:05.082Z,12.29
2019-02-10T03:29:36.349Z,12.28
2019-02-10T03:32:07.717Z,12.25
2019-02-10T03:34:40.774Z,12.24
2019-02-10T03:37:14.432Z,12.23
2019-02-10T03:39:45.832Z,12.25
2019-02-10T03:42:17.158Z,12.27
2019-02-10T03:44:49.473Z,12.29
2019-02-10T03:47:22.157Z,12.29
2019-02-10T03:49:54.052Z,12.27
2019-02-10T03:52:25.359Z,12.27
2019-02-10T03:54:57.197Z,12.34
2019-02-10T03:57:28.559Z,12.30
2019-02-10T04:00:00.314Z,12.35
2019-02-10T04:02:33.763Z,12.35
2019-02-10T04:05:05.171Z,12.35
2019-02-10T04:07:36.906Z,12.38
2019-02-10T04:10:08.997Z,12.46
2019-02-10T04:12:40.446Z,12.41
2019-02-10T04:15:12.342Z,12.49
2019-02-10T04:17:43.629Z,12.50
2019-02-10T04:20:15.324Z,12.49
2019-02-10T04:22:47.040Z,12.49
2019-02-10T04:25:18.393Z,12.47
2019-02-10T04:27:50.480Z,12.52
2019-02-10T04:30:22.372Z,12.54
2019-02-10T04:32:57.422Z,12.58
2019-02-10T04:35:28.734Z,12.56
2019-02-10T04:38:00.088Z,12.54
2019-02-10T04:40:32.779Z,12.59
2019-02-10T04:43:04.196Z,12.65
2019-02-10T04:45:35.558Z,12.66
2019-02-10T04:48:06.991Z,12.65
2019-02-10T04:50:38.839Z,12.72
2019-02-10T04:53:10.156Z,12.75
2019-02-10T04:55:41.486Z,12.77
2019-02-10T04:58:12.824Z,12.77
2019-02-10T05:00:44.606Z,12.79
2019-02-10T05:03:15.956Z,12.79
2019-02-10T05:05:47.335Z,12.82
2019-02-10T05:08:18.954Z,12.86
2019-02-10T05:10:50.422Z,12.83
2019-02-10T05:13:21.762Z,12.82
2019-02-10T05:15:53.083Z,12.83
2019-02-10T05:18:26.041Z,12.86
2019-02-10T05:20:57.363Z,12.87
2019-02-10T05:23:28.653Z,12.84
2019-02-10T05:26:00.400Z,12.85
2019-02-10T05:28:33.497Z,12.88
2019-02-10T05:31:05.124Z,12.85
2019-02-10T05:33:36.414Z,12.86
2019-02-10T05:36:07.717Z,12.81
2019-02-10T05:38:39.064Z,12.77
2019-02-10T05:41:10.362Z,12.73
2019-02-10T05:43:41.636Z,12.78
2019-02-10T05:46:13.346Z,12.76
2019-02-10T05:48:44.686Z,12.77
2019-02-10T05:51:15.947Z,12.74
2019-02-10T05:53:48.924Z,12.68
2019-02-10T05:56:22.542Z,12.70
2019-02-10T05:58:53.827Z,12.66
2019-02-10T06:02:18.626Z,12.68
2019-02-10T06:04:49.927Z,12.71
2019-02-10T06:07:21.217Z,12.68
2019-02-10T06:09:52.518Z,12.70
2019-02-10T06:12:23.828Z,12.71
2019-02-10T06:14:55.166Z,12.73
2019-02-10T06:17:26.412Z,12.72
2019-02-10T06:19:59.379Z,12.73
2019-02-10T06:22:30.736Z,12.72
2019-02-10T06:25:04.193Z,12.78
2019-02-10T06:27:35.647Z,12.75
2019-02-10T06:30:07.642Z,12.78
2019-02-10T06:32:39.044Z,12.81
2019-02-10T06:35:10.906Z,12.86
2019-02-10T06:37:43.249Z,12.93
2019-02-10T06:40:14.534Z,12.93
2019-02-10T06:42:45.893Z,13.00
2019-02-10T06:45:17.227Z,12.96
2019-02-10T06:47:48.569Z,12.94
2019-02-10T06:50:19.930Z,12.93
2019-02-10T06:52:51.191Z,12.94
2019-02-10T06:55:22.509Z,12.90
2019-02-10T06:57:54.908Z,12.89
2019-02-10T07:00:45.025Z,12.93
2019-02-10T07:04:15.353Z,12.98
2019-02-10T07:06:47.055Z,13.00
2019-02-10T07:09:20.435Z,13.03
2019-02-10T07:11:51.851Z,13.04
2019-02-10T07:14:35.243Z,13.08
2019-02-10T07:17:51.182Z,13.11
2019-02-10T07:20:42.908Z,13.06
2019-02-10T07:24:06.997Z,13.04
2019-02-10T07:26:57.935Z,13.05
2019-02-10T07:30:16.178Z,13.09
2019-02-10T07:32:50.540Z,13.06
2019-02-10T07:36:17.802Z,13.07
2019-02-10T07:39:35.251Z,13.07
2019-02-10T07:42:40.087Z,13.08
2019-02-10T07:45:51.948Z,13.11
2019-02-10T07:48:45.556Z,13.03
2019-02-10T07:51:38.885Z,13.05
2019-02-10T07:54:54.013Z,13.05
2019-02-10T07:57:57.950Z,13.06
2019-02-10T08:01:03.519Z,13.18
2019-02-10T08:04:16.331Z,13.09
2019-02-10T08:07:09.434Z,13.07
2019-02-10T08:10:26.767Z,13.05
2019-02-10T08:13:29.646Z,13.14
2019-02-10T08:16:19.504Z,13.19
2019-02-10T08:19:14.966Z,13.23
2019-02-10T08:22:21.892Z,13.25
2019-02-10T08:25:06.929Z,13.20
2019-02-10T08:28:15.628Z,13.24
2019-02-10T08:31:32.675Z,13.29
2019-02-10T08:34:31.649Z,13.30
2019-02-10T08:37:37.019Z,13.31
2019-02-10T08:40:59.878Z,13.34
2019-02-10T08:43:50.072Z,13.40
2019-02-10T08:47:03.574Z,13.41
2019-02-10T08:50:31.038Z,13.43
2019-02-10T08:53:29.539Z,13.51
2019-02-10T08:56:01.643Z,13.48
2019-02-10T08:58:32.999Z,13.53
2019-02-10T09:01:04.912Z,13.59
2019-02-10T09:03:37.013Z,13.56
2019-02-10T09:06:09.455Z,13.59
2019-02-10T09:08:40.666Z,13.64
2019-02-10T09:11:12.536Z,13.60
2019-02-10T09:13:43.839Z,13.57
2019-02-10T09:16:15.135Z,13.62
2019-02-10T09:18:46.443Z,13.62
2019-02-10T09:21:18.091Z,13.61
2019-02-10T09:23:49.438Z,13.61
2019-02-10T09:26:20.687Z,13.63
2019-02-10T09:28:52.588Z,13.66
2019-02-10T09:31:25.495Z,13.72
2019-02-10T09:33:56.812Z,13.77
2019-02-10T09:36:28.121Z,13.76
2019-02-10T09:38:59.673Z,13.81
2019-02-10T09:41:36.675Z,13.83
2019-02-10T09:44:25.436Z,13.83
2019-02-10T09:46:56.744Z,13.83
2019-02-10T09:49:28.403Z,13.90
2019-02-10T09:52:03.524Z,13.91
2019-02-10T09:54:36.007Z,13.94
2019-02-10T09:57:07.561Z,13.97
2019-02-10T09:59:39.187Z,14.01
2019-02-10T10:02:10.449Z,14.02
2019-02-10T10:04:43.169Z,13.99
2019-02-10T10:07:15.091Z,14.06
2019-02-10T10:09:46.611Z,14.03
2019-02-10T10:12:17.911Z,14.06
2019-02-10T10:14:51.681Z,14.10
2019-02-10T10:17:27.361Z,14.13
2019-02-10T10:19:58.829Z,14.19
2019-02-10T10:22:30.846Z,14.26
2019-02-10T10:25:05.710Z,14.28
2019-02-10T10:27:37.036Z,14.37
2019-02-10T10:30:13.493Z,14.53
2019-02-10T10:32:46.436Z,14.53
2019-02-10T10:35:27.532Z,14.52
2019-02-10T10:38:04.279Z,14.52
2019-02-10T10:40:38.656Z,14.53
2019-02-10T10:43:13.869Z,14.59
2019-02-10T10:45:48.455Z,14.70
2019-02-10T10:48:20.446Z,14.74
2019-02-10T10:50:51.746Z,14.74
2019-02-10T10:53:33.964Z,14.79
2019-02-10T10:56:19.349Z,14.82
2019-02-10T10:58:50.906Z,14.95
2019-02-10T11:01:28.082Z,14.88
2019-02-10T11:04:11.760Z,14.66
2019-02-10T11:06:44.259Z,14.76
2019-02-10T11:09:15.499Z,14.53
2019-02-10T11:11:48.021Z,14.64
2019-02-10T11:14:22.271Z,14.48
2019-02-10T11:16:53.633Z,14.47
2019-02-10T11:19:25.096Z,14.68
2019-02-10T11:21:59.755Z,14.62
2019-02-10T11:24:31.144Z,14.67
2019-02-10T11:27:03.564Z,14.68
2019-02-10T11:29:36.124Z,14.91
2019-02-10T11:32:07.408Z,14.83
2019-02-10T11:34:46.051Z,14.70
2019-02-10T11:37:13.577Z,14.53
2019-02-10T11:39:44.880Z,14.61
2019-02-10T11:42:16.567Z,14.64
2019-02-10T11:44:47.881Z,14.56
2019-02-10T11:47:19.267Z,14.75
2019-02-10T11:49:50.858Z,14.72
2019-02-10T11:52:22.255Z,14.77
2019-02-10T11:54:53.515Z,15.05
2019-02-10T11:57:24.965Z,14.97
2019-02-10T11:59:56.336Z,14.89
2019-02-10T12:02:27.683Z,14.75
2019-02-10T12:04:59.100Z,14.53
2019-02-10T12:07:30.426Z,14.70
2019-02-10T12:10:03.533Z,14.78
2019-02-10T12:12:34.881Z,14.86
2019-02-10T12:15:06.925Z,14.85
2019-02-10T12:17:38.246Z,14.86
2019-02-10T12:20:10.472Z,15.36
2019-02-10T12:22:49.685Z,15.57
2019-02-10T12:25:15.113Z,15.71
2019-02-10T12:27:47.469Z,15.77
2019-02-10T12:30:19.187Z,15.68
2019-02-10T12:32:50.492Z,15.75
2019-02-10T12:35:21.787Z,16.00
2019-02-10T12:37:53.090Z,16.68
2019-02-10T12:40:24.392Z,17.03
2019-02-10T12:42:55.730Z,17.44
2019-02-10T12:45:27.338Z,18.29
2019-02-10T12:47:58.584Z,19.04
2019-02-10T12:50:29.981Z,21.11
2019-02-10T12:53:01.491Z,22.43
2019-02-10T12:55:33.753Z,23.01
2019-02-10T12:58:05.088Z,22.25
2019-02-10T13:00:37.945Z,20.79
2019-02-10T13:03:09.452Z,20.76
2019-02-10T13:05:40.771Z,21.43
2019-02-10T13:08:12.219Z,23.68
2019-02-10T13:10:43.756Z,24.83
2019-02-10T13:13:19.313Z,25.20
2019-02-10T13:15:48.085Z,24.92
2019-02-10T13:18:20.898Z,24.10
2019-02-10T13:20:54.710Z,22.67
2019-02-10T13:23:26.047Z,20.76
2019-02-10T13:25:57.512Z,20.04
2019-02-10T13:28:28.769Z,19.38
2019-02-10T13:31:00.090Z,20.21
2019-02-10T13:33:31.667Z,20.78
2019-02-10T13:36:03.569Z,19.72
2019-02-10T13:38:34.901Z,19.83
2019-02-10T13:41:06.217Z,19.62
2019-02-10T13:43:38.843Z,19.35
2019-02-10T13:46:10.135Z,19.17
2019-02-10T13:48:41.469Z,19.80
2019-02-10T13:51:12.768Z,20.05
2019-02-10T13:53:44.175Z,20.01
2019-02-10T13:56:15.416Z,19.83
2019-02-10T13:58:46.728Z,19.70
2019-02-10T14:01:18.133Z,19.52
2019-02-10T14:03:49.552Z,19.73
2019-02-10T14:06:20.855Z,19.57
2019-02-10T14:08:52.216Z,19.12
2019-02-10T14:11:23.551Z,18.22
2019-02-10T14:26:09.429Z,18.08
2019-02-10T14:28:40.783Z,17.63
2019-02-10T14:31:12.133Z,17.54
2019-02-10T14:33:43.485Z,17.27
2019-02-10T14:36:14.834Z,17.47
2019-02-10T14:38:46.128Z,16.94
2019-02-10T14:41:17.423Z,17.01
2019-02-10T14:43:49.744Z,17.06
2019-02-10T14:46:21.077Z,17.15
2019-02-10T14:48:52.388Z,16.87
2019-02-10T14:51:23.777Z,16.82
2019-02-10T14:53:55.183Z,16.82
2019-02-10T14:56:26.540Z,16.25
2019-02-10T14:58:59.202Z,16.37
2019-02-10T15:01:30.579Z,16.05
2019-02-10T15:04:01.795Z,16.00
2019-02-10T15:06:35.394Z,15.85
2019-02-10T15:09:10.376Z,15.82
2019-02-10T15:11:41.687Z,16.06
2019-02-10T15:14:12.999Z,15.81
2019-02-10T15:16:44.400Z,15.88
2019-02-10T15:19:15.677Z,16.18
2019-02-10T15:21:47.416Z,16.34
2019-02-10T15:24:18.838Z,16.38
2019-02-10T15:26:50.215Z,16.47
2019-02-10T15:29:21.515Z,16.42
2019-02-10T15:31:52.854Z,16.23
2019-02-10T15:34:24.147Z,16.11
2019-02-10T15:36:55.407Z,15.89
2019-02-10T15:39:26.723Z,15.74
2019-02-10T15:41:59.243Z,15.54
2019-02-10T15:44:30.624Z,15.41
2019-02-10T15:47:01.917Z,15.34
2019-02-10T15:49:33.224Z,15.34
2019-02-10T15:52:04.986Z,15.02
2019-02-10T15:54:36.669Z,14.83
2019-02-10T15:57:07.990Z,14.90
2019-02-10T15:59:39.243Z,15.20
2019-02-10T16:02:10.550Z,15.46
2019-02-10T16:04:41.804Z,15.59
2019-02-10T16:07:13.118Z,15.52
2019-02-10T16:09:47.028Z,15.70
2019-02-10T16:12:18.288Z,15.65
2019-02-10T16:14:49.597Z,15.36
2019-02-10T16:17:21.018Z,15.58
2019-02-10T16:19:52.287Z,15.55
2019-02-10T16:22:23.624Z,15.64
2019-02-10T16:24:55.869Z,15.61
2019-02-10T16:27:27.194Z,15.72
2019-02-10T16:30:00.669Z,15.79
2019-02-10T16:32:32.700Z,15.63
2019-02-10T16:35:04.029Z,15.50
2019-02-10T16:37:35.860Z,15.34
2019-02-10T16:40:11.775Z,15.12
2019-02-10T16:42:44.433Z,14.91
2019-02-10T16:45:15.945Z,14.77
2019-02-10T16:47:47.359Z,14.58
2019-02-10T16:50:18.726Z,14.56
2019-02-10T16:52:50.090Z,14.50
2019-02-10T16:55:21.526Z,14.37
2019-02-10T16:57:54.528Z,14.27
2019-02-10T17:00:26.501Z,14.10
2019-02-10T17:02:57.759Z,13.99
2019-02-10T17:05:29.098Z,13.95
2019-02-10T17:08:00.382Z,13.82
2019-02-10T17:10:31.776Z,13.70
2019-02-10T17:13:03.087Z,13.74
2019-02-10T17:15:34.404Z,13.66
2019-02-10T17:18:05.717Z,13.63
2019-02-10T17:20:38.090Z,13.60
2019-02-10T17:23:10.608Z,13.43
2019-02-10T17:25:42.000Z,13.40
2019-02-10T17:28:13.645Z,13.24
2019-02-10T17:30:45.089Z,13.26
2019-02-10T17:33:16.530Z,13.18
2019-02-10T17:35:49.099Z,13.12
2019-02-10T17:38:20.408Z,13.08
2019-02-10T17:41:00.217Z,12.89
2019-02-10T17:43:34.757Z,12.91
2019-02-10T17:46:06.151Z,12.75
2019-02-10T17:48:37.528Z,12.62
2019-02-10T17:51:08.791Z,12.45
2019-02-10T17:53:40.167Z,12.40
2019-02-10T17:56:11.530Z,12.39
2019-02-10T17:58:43.811Z,12.28
2019-02-10T18:01:15.167Z,12.13
2019-02-10T18:03:46.464Z,12.13
2019-02-10T18:06:17.811Z,12.03
2019-02-10T18:08:49.098Z,11.99
2019-02-10T18:11:20.597Z,11.92
2019-02-10T18:13:51.991Z,11.85
2019-02-10T18:16:45.251Z,11.79
2019-02-10T18:19:35.448Z,11.72
2019-02-10T18:22:32.339Z,11.65
2019-02-10T18:25:25.705Z,11.65
2019-02-10T18:28:22.417Z,11.59
2019-02-10T18:31:07.641Z,11.51
2019-02-10T18:34:01.252Z,11.42
2019-02-10T18:36:45.869Z,11.38
2019-02-10T18:39:31.669Z,11.37
2019-02-10T18:42:25.238Z,11.32
2019-02-10T18:45:13.971Z,11.24
2019-02-10T18:47:59.506Z,11.18
2019-02-10T18:50:49.883Z,11.14
2019-02-10T18:53:46.320Z,11.14
2019-02-10T18:56:48.475Z,11.05
2019-02-10T18:59:44.895Z,10.96
2019-02-10T19:02:34.524Z,10.93
2019-02-10T19:05:34.170Z,10.85
2019-02-10T19:08:22.873Z,10.83
2019-02-10T19:11:05.883Z,10.73
2019-02-10T19:13:56.085Z,10.67
2019-02-10T19:16:46.293Z,10.61
2019-02-10T19:19:31.191Z,10.55
2019-02-10T19:22:36.746Z,10.47
2019-02-10T19:25:39.163Z,10.44
2019-02-10T19:28:26.548Z,10.38
2019-02-10T19:31:17.264Z,10.34
2019-02-10T19:34:00.910Z,10.14
2019-02-10T19:36:54.446Z,10.15
2019-02-10T19:39:37.029Z,10.03
2019-02-10T19:42:26.020Z,9.84
2019-02-10T19:45:15.091Z,9.82
2019-02-10T19:47:57.727Z,9.76
2019-02-10T19:50:50.442Z,9.65
2019-02-10T19:53:33.468Z,9.68
2019-02-10T19:56:25.519Z,9.64
2019-02-10T19:59:14.368Z,9.50
2019-02-10T20:02:20.384Z,9.42
2019-02-10T20:05:28.931Z,9.39
2019-02-10T20:08:28.141Z,9.36
2019-02-10T20:11:12.888Z,9.35
2019-02-10T20:13:49.466Z,9.27
2019-02-10T20:16:49.015Z,9.38
2019-02-10T20:19:30.491Z,9.28
2019-02-10T20:22:36.008Z,9.27
2019-02-10T20:25:32.171Z,9.25
2019-02-10T20:28:40.725Z,9.24
2019-02-10T20:31:31.141Z,9.22
2019-02-10T20:34:24.773Z,9.17
2019-02-10T20:37:15.014Z,9.15
2019-02-10T20:40:08.368Z,9.06
2019-02-10T20:43:16.787Z,8.95
2019-02-10T20:46:06.127Z,9.03
2019-02-10T20:48:50.759Z,9.07
2019-02-10T20:51:49.882Z,9.08
2019-02-10T20:54:52.592Z,9.06
2019-02-10T20:57:38.794Z,9.08
2019-02-10T21:00:17.654Z,9.12
2019-02-10T21:03:04.994Z,9.19
2019-02-10T21:05:58.477Z,9.14
2019-02-10T21:08:35.850Z,9.07
2019-02-10T21:11:41.740Z,9.07
2019-02-10T21:14:35.563Z,9.07
2019-02-10T21:17:28.378Z,9.10
2019-02-10T21:20:05.377Z,8.95
2019-02-10T21:22:58.952Z,8.96
2019-02-10T21:25:57.193Z,9.01
2019-02-10T21:28:55.422Z,9.00
2019-02-10T21:32:01.791Z,8.99
2019-02-10T21:35:11.702Z,8.87
2019-02-10T21:38:03.654Z,8.78
2019-02-10T21:40:45.676Z,8.72
2019-02-10T21:43:44.068Z,8.66
2019-02-10T21:46:49.809Z,8.63
2019-02-10T21:49:23.654Z,8.41
2019-02-10T21:51:55.605Z,8.22
2019-02-10T21:54:27.499Z,8.20
2019-02-10T21:56:59.344Z,8.12
2019-02-10T21:59:31.250Z,8.11
2019-02-10T22:02:04.668Z,8.13
2019-02-10T22:04:36.514Z,8.15
2019-02-10T22:07:08.335Z,8.10
2019-02-10T22:09:40.332Z,7.96
2019-02-10T22:12:12.159Z,7.90
2019-02-10T22:14:44.086Z,7.92
2019-02-10T22:17:16.045Z,7.76
2019-02-10T22:19:48.542Z,7.66
2019-02-10T22:22:20.382Z,7.57
2019-02-10T22:24:53.298Z,7.61
2019-02-10T22:27:25.488Z,7.70
2019-02-10T22:29:57.426Z,7.73
2019-02-10T22:32:31.031Z,7.74
2019-02-10T22:35:05.279Z,7.79
2019-02-10T22:37:37.176Z,7.82
2019-02-10T22:40:09.596Z,7.48
2019-02-10T22:42:45.910Z,7.33
2019-02-10T22:45:15.625Z,7.13
2019-02-10T22:47:47.976Z,7.01
2019-02-10T22:50:22.231Z,7.07
2019-02-10T22:52:54.225Z,7.15
2019-02-10T22:55:27.425Z,7.26
2019-02-10T22:57:59.723Z,7.19
2019-02-10T23:00:55.176Z,7.09
2019-02-10T23:03:29.682Z,7.19
2019-02-10T23:06:04.733Z,6.99
2019-02-10T23:08:36.748Z,7.01
2019-02-10T23:11:08.902Z,6.97
2019-02-10T23:13:41.054Z,6.91
2019-02-10T23:16:13.200Z,6.84
2019-02-10T23:18:45.470Z,6.88
2019-02-10T23:21:19.036Z,6.88
2019-02-10T23:23:50.971Z,6.88
2019-02-10T23:26:22.944Z,6.93
2019-02-10T23:28:54.862Z,6.81
2019-02-10T23:31:26.653Z,6.74
2019-02-10T23:33:58.506Z,6.65
2019-02-10T23:36:30.370Z,6.48
2019-02-10T23:39:02.820Z,6.49
2019-02-10T23:41:35.897Z,6.43
2019-02-10T23:44:10.288Z,6.39
2019-02-10T23:46:42.118Z,6.29
2019-02-10T23:49:14.128Z,6.37
2019-02-10T23:51:45.956Z,6.41
2019-02-10T23:54:17.754Z,6.42
2019-02-10T23:56:49.821Z,6.28
2019-02-10T23:59:21.615Z,6.32
